createdAt,value
2019-05-20T00:00:25.586Z,13.73
2019-05-20T00:02:54.244Z,11.50
2019-05-20T00:05:22.841Z,12.70
2019-05-20T00:07:51.521Z,11.57
2019-05-20T00:10:20.405Z,11.33
2019-05-20T00:12:48.959Z,11.47
2019-05-20T00:15:17.682Z,11.23
2019-05-20T00:17:46.587Z,13.10
2019-05-20T00:20:15.331Z,10.77
2019-05-20T00:22:44.032Z,10.73
2019-05-20T00:25:12.837Z,15.97
2019-05-20T00:27:41.563Z,8.23
2019-05-20T00:30:11.099Z,12.70
2019-05-20T00:32:41.592Z,12.67
2019-05-20T00:35:10.116Z,13.87
2019-05-20T00:37:38.673Z,9.37
2019-05-20T00:40:08.083Z,9.73
2019-05-20T00:42:36.636Z,10.40
2019-05-20T00:45:05.865Z,10.97
2019-05-20T00:47:34.790Z,9.40
2019-05-20T00:50:04.357Z,9.90
2019-05-20T00:52:32.912Z,11.10
2019-05-20T00:55:01.561Z,10.73
2019-05-20T00:57:30.125Z,12.93
2019-05-20T00:59:58.709Z,10.23
2019-05-20T01:02:27.352Z,10.40
2019-05-20T01:04:55.916Z,9.60
2019-05-20T01:07:24.483Z,9.40
2019-05-20T01:09:53.068Z,11.73
2019-05-20T01:12:21.612Z,9.47
2019-05-20T01:14:50.214Z,11.80
2019-05-20T01:17:18.780Z,11.90
2019-05-20T01:19:47.440Z,14.37
2019-05-20T01:22:15.995Z,9.90
2019-05-20T01:24:44.562Z,11.30
2019-05-20T01:27:13.140Z,13.80
2019-05-20T01:29:41.714Z,10.97
2019-05-20T01:32:10.344Z,13.20
2019-05-20T01:34:38.916Z,10.10
2019-05-20T01:37:07.491Z,12.83
2019-05-20T01:39:36.049Z,10.50
2019-05-20T01:42:04.806Z,11.17
2019-05-20T01:44:33.352Z,11.40
2019-05-20T01:47:01.937Z,11.43
2019-05-20T01:49:30.532Z,11.77
2019-05-20T01:51:59.100Z,12.00
2019-05-20T01:54:27.659Z,12.90
2019-05-20T01:56:56.234Z,13.57
2019-05-20T01:59:24.788Z,11.60
2019-05-20T02:01:53.373Z,11.30
2019-05-20T02:04:21.950Z,14.07
2019-05-20T02:06:50.516Z,15.47
2019-05-20T02:09:19.149Z,9.73
2019-05-20T02:11:47.722Z,11.33
2019-05-20T02:14:21.093Z,16.40
2019-05-20T02:16:49.636Z,16.07
2019-05-20T02:19:18.863Z,14.70
2019-05-20T02:21:47.460Z,14.13
2019-05-20T02:24:16.094Z,12.40
2019-05-20T02:26:44.665Z,11.73
2019-05-20T02:29:13.296Z,16.30
2019-05-20T02:31:41.954Z,13.13
2019-05-20T02:34:10.518Z,15.17
2019-05-20T02:36:39.101Z,16.43
2019-05-20T02:39:07.819Z,11.77
2019-05-20T02:41:36.628Z,15.00
2019-05-20T02:44:05.252Z,12.07
2019-05-20T02:46:33.908Z,20.70
2019-05-20T02:49:02.464Z,19.37
2019-05-20T02:51:31.149Z,13.97
2019-05-20T02:54:02.027Z,14.10
2019-05-20T02:59:59.086Z,13.37
2019-05-20T03:02:27.663Z,15.17
2019-05-20T03:04:56.240Z,13.73
2019-05-20T03:07:24.825Z,15.07
2019-05-20T03:09:53.380Z,13.93
2019-05-20T03:12:22.039Z,17.63
2019-05-20T03:14:50.609Z,18.20
2019-05-20T03:17:19.175Z,16.20
2019-05-20T03:19:47.742Z,21.47
2019-05-20T03:22:16.385Z,20.33
2019-05-20T03:24:45.015Z,18.10
2019-05-20T03:27:13.696Z,16.23
2019-05-20T03:29:42.257Z,17.93
2019-05-20T03:32:10.884Z,17.63
2019-05-20T03:34:46.455Z,16.43
2019-05-20T03:37:09.684Z,19.17
2019-05-20T03:40:29.244Z,19.80
2019-05-20T03:46:17.801Z,22.50
2019-05-20T03:48:46.405Z,18.17
2019-05-20T03:51:14.972Z,19.33
2019-05-20T03:53:43.553Z,20.07
2019-05-20T03:56:12.114Z,19.43
2019-05-20T03:58:40.686Z,16.80
2019-05-20T04:01:09.299Z,18.77
2019-05-20T04:03:37.835Z,19.80
2019-05-20T04:06:06.394Z,21.13
2019-05-20T04:08:35.012Z,21.03
2019-05-20T04:11:03.552Z,18.10
2019-05-20T04:13:34.698Z,17.30
2019-05-20T04:16:02.420Z,25.97
2019-05-20T04:18:30.997Z,20.90
2019-05-20T04:20:59.562Z,19.03
2019-05-20T04:23:28.149Z,22.03
2019-05-20T04:25:56.720Z,20.83
2019-05-20T04:28:25.305Z,20.60
2019-05-20T04:30:53.866Z,17.80
2019-05-20T04:33:22.443Z,21.07
2019-05-20T04:35:51.021Z,17.97
2019-05-20T04:38:19.570Z,19.83
2019-05-20T04:40:48.154Z,20.23
2019-05-20T04:43:16.712Z,21.37
2019-05-20T04:45:45.364Z,24.77
2019-05-20T04:48:14.205Z,20.20
2019-05-20T04:50:42.988Z,20.33
2019-05-20T04:53:11.542Z,20.30
2019-05-20T04:55:40.123Z,22.07
2019-05-20T04:58:08.756Z,21.93
2019-05-20T05:00:49.387Z,18.33
2019-05-20T05:03:18.012Z,20.47
2019-05-20T05:05:46.772Z,19.83
2019-05-20T05:08:15.467Z,21.10
2019-05-20T05:10:44.185Z,23.93
2019-05-20T05:13:12.883Z,23.93
2019-05-20T05:15:41.566Z,19.07
2019-05-20T05:18:10.173Z,19.47
2019-05-20T05:20:38.759Z,18.50
2019-05-20T05:23:07.317Z,20.07
2019-05-20T05:25:36.145Z,21.33
2019-05-20T05:28:05.350Z,18.10
2019-05-20T05:30:34.964Z,23.13
2019-05-20T05:33:03.533Z,23.37
2019-05-20T05:35:32.201Z,25.07
2019-05-20T05:38:00.802Z,20.10
2019-05-20T05:40:31.733Z,25.30
2019-05-20T05:43:00.371Z,18.57
2019-05-20T05:45:31.225Z,23.77
2019-05-20T05:47:59.892Z,23.07
2019-05-20T05:50:28.629Z,20.50
2019-05-20T05:52:57.331Z,20.87
2019-05-20T05:55:26.338Z,21.83
2019-05-20T05:57:54.904Z,19.87
2019-05-20T06:00:23.710Z,21.30
2019-05-20T06:02:52.281Z,19.37
2019-05-20T06:05:20.907Z,18.97
2019-05-20T06:07:49.557Z,18.50
2019-05-20T06:10:19.193Z,19.10
2019-05-20T06:12:47.757Z,21.93
2019-05-20T06:15:16.863Z,17.67
2019-05-20T06:17:45.494Z,19.23
2019-05-20T06:20:16.020Z,20.00
2019-05-20T06:22:44.671Z,19.10
2019-05-20T06:25:13.970Z,30.13
2019-05-20T06:27:42.582Z,27.53
2019-05-20T06:30:15.150Z,17.93
2019-05-20T06:32:43.877Z,17.83
2019-05-20T06:35:15.530Z,23.70
2019-05-20T06:37:45.980Z,19.53
2019-05-20T06:40:16.007Z,31.87
2019-05-20T06:42:44.664Z,25.87
2019-05-20T06:45:13.579Z,23.33
2019-05-20T06:47:42.156Z,20.07
2019-05-20T06:50:10.981Z,19.97
2019-05-20T06:52:39.531Z,19.77
2019-05-20T06:55:09.264Z,19.47
2019-05-20T06:57:37.825Z,17.53
2019-05-20T07:00:09.436Z,19.63
2019-05-20T07:02:38.063Z,18.27
2019-05-20T07:05:09.741Z,17.93
2019-05-20T07:07:38.022Z,22.57
2019-05-20T07:10:08.287Z,22.07
2019-05-20T07:12:40.993Z,20.90
2019-05-20T07:15:10.509Z,18.80
2019-05-20T07:17:39.089Z,20.47
2019-05-20T07:20:08.081Z,27.70
2019-05-20T07:22:53.862Z,22.40
2019-05-20T07:25:07.506Z,26.67
2019-05-20T07:27:36.094Z,27.00
2019-05-20T07:30:06.494Z,26.60
2019-05-20T07:32:35.239Z,23.83
2019-05-20T07:35:05.728Z,26.60
2019-05-20T07:37:34.351Z,21.60
2019-05-20T07:40:02.972Z,27.73
2019-05-20T07:42:31.627Z,24.70
2019-05-20T07:45:00.184Z,20.67
2019-05-20T07:47:29.100Z,24.77
2019-05-20T07:49:58.091Z,22.00
2019-05-20T07:52:28.019Z,23.33
2019-05-20T07:54:58.219Z,23.73
2019-05-20T07:57:29.879Z,23.73
2019-05-20T07:59:58.671Z,31.40
2019-05-20T08:02:28.300Z,24.40
2019-05-20T08:04:56.976Z,22.97
2019-05-20T08:07:30.148Z,23.50
2019-05-20T08:09:55.837Z,22.23
2019-05-20T08:12:24.424Z,24.87
2019-05-20T08:14:53.082Z,21.40
2019-05-20T08:17:21.725Z,22.87
2019-05-20T08:19:50.299Z,24.90
2019-05-20T08:22:18.964Z,23.20
2019-05-20T08:24:47.544Z,105.83
2019-05-20T08:27:16.117Z,25.20
2019-05-20T08:29:44.672Z,24.27
2019-05-20T08:32:13.410Z,19.33
2019-05-20T08:34:41.970Z,22.73
2019-05-20T08:37:10.571Z,23.00
2019-05-20T08:39:39.108Z,21.40
2019-05-20T08:42:07.769Z,25.63
2019-05-20T08:44:36.507Z,21.90
2019-05-20T08:47:05.241Z,21.80
2019-05-20T08:49:34.161Z,20.57
2019-05-20T08:52:03.076Z,19.93
2019-05-20T08:54:31.636Z,19.90
2019-05-20T08:57:00.305Z,21.63
2019-05-20T08:59:28.874Z,19.57
2019-05-20T09:01:57.521Z,19.13
2019-05-20T09:04:26.118Z,21.40
2019-05-20T09:06:54.685Z,20.33
2019-05-20T09:09:23.545Z,22.07
2019-05-20T09:11:52.243Z,22.17
2019-05-20T09:14:20.823Z,21.30
2019-05-20T09:16:50.147Z,21.73
2019-05-20T09:19:18.806Z,19.90
2019-05-20T09:21:47.462Z,21.07
2019-05-20T09:24:18.821Z,20.37
2019-05-20T09:26:46.308Z,19.40
2019-05-20T09:29:14.988Z,18.23
2019-05-20T09:31:43.554Z,17.07
2019-05-20T09:34:12.273Z,17.23
2019-05-20T09:36:40.981Z,15.80
2019-05-20T09:39:09.710Z,16.00
2019-05-20T09:41:38.272Z,17.23
2019-05-20T09:44:06.949Z,15.37
2019-05-20T09:46:35.506Z,13.90
2019-05-20T09:49:04.320Z,15.17
2019-05-20T09:51:32.928Z,15.60
2019-05-20T09:54:01.582Z,13.70
2019-05-20T09:56:30.122Z,16.70
2019-05-20T09:58:58.704Z,17.60
2019-05-20T10:01:27.261Z,16.93
2019-05-20T10:03:55.833Z,13.90
2019-05-20T10:06:24.462Z,15.03
2019-05-20T10:08:53.135Z,15.60
2019-05-20T10:11:21.703Z,13.83
2019-05-20T10:13:50.282Z,16.70
2019-05-20T10:16:18.837Z,17.13
2019-05-20T10:18:47.420Z,16.40
2019-05-20T10:21:15.981Z,16.47
2019-05-20T10:23:44.551Z,14.17
2019-05-20T10:26:13.205Z,17.13
2019-05-20T10:28:46.816Z,17.47
2019-05-20T10:31:12.096Z,17.10
2019-05-20T10:33:40.766Z,18.33
2019-05-20T10:36:09.319Z,14.70
2019-05-20T10:38:54.948Z,15.90
2019-05-20T10:41:08.130Z,20.00
2019-05-20T10:43:36.728Z,22.53
2019-05-20T10:46:05.293Z,20.60
2019-05-20T10:48:33.867Z,20.67
2019-05-20T10:51:02.491Z,24.10
2019-05-20T10:53:31.081Z,23.00
2019-05-20T10:55:59.817Z,19.77
2019-05-20T10:58:28.472Z,20.00
2019-05-20T11:01:02.388Z,20.67
2019-05-20T11:03:27.278Z,19.33
2019-05-20T11:05:55.865Z,20.67
2019-05-20T11:08:24.501Z,23.90
2019-05-20T11:10:53.334Z,24.60
2019-05-20T11:13:22.073Z,23.57
2019-05-20T11:15:50.645Z,26.63
2019-05-20T11:18:19.199Z,26.23
2019-05-20T11:20:48.216Z,24.07
2019-05-20T11:23:16.807Z,30.83
2019-05-20T11:25:46.256Z,25.73
2019-05-20T11:28:14.826Z,27.73
2019-05-20T11:30:43.430Z,26.40
2019-05-20T11:33:12.101Z,24.97
2019-05-20T11:35:40.647Z,27.13
2019-05-20T11:38:09.239Z,29.23
2019-05-20T11:40:37.788Z,23.03
2019-05-20T11:43:07.006Z,27.43
2019-05-20T11:45:35.538Z,31.67
2019-05-20T11:48:04.164Z,27.07
2019-05-20T11:50:32.795Z,29.83
2019-05-20T11:53:01.661Z,27.53
2019-05-20T11:55:30.290Z,25.53
2019-05-20T11:58:14.536Z,27.60
2019-05-20T12:00:29.221Z,24.13
2019-05-20T12:02:57.819Z,26.43
2019-05-20T12:05:26.409Z,27.20
2019-05-20T12:07:55.026Z,28.30
2019-05-20T12:10:23.756Z,30.53
2019-05-20T12:12:52.407Z,25.90
2019-05-20T12:15:21.097Z,26.83
2019-05-20T12:17:49.806Z,26.67
2019-05-20T12:20:19.060Z,26.10
2019-05-20T12:22:47.638Z,27.03
2019-05-20T12:25:16.345Z,26.63
2019-05-20T12:27:44.917Z,28.00
2019-05-20T12:30:13.954Z,26.13
2019-05-20T12:32:42.514Z,23.40
2019-05-20T12:35:11.231Z,27.83
2019-05-20T12:37:39.903Z,24.17
2019-05-20T12:40:08.935Z,26.53
2019-05-20T12:42:37.768Z,26.50
2019-05-20T12:45:07.897Z,27.50
2019-05-20T12:47:36.465Z,30.07
2019-05-20T12:50:05.887Z,23.93
2019-05-20T12:52:34.574Z,27.63
2019-05-20T12:55:08.707Z,30.03
2019-05-20T12:57:33.662Z,32.70
2019-05-20T13:00:02.245Z,29.73
2019-05-20T13:02:30.873Z,31.27
2019-05-20T13:04:59.461Z,27.10
2019-05-20T13:07:28.064Z,27.67
2019-05-20T13:09:56.655Z,32.27
2019-05-20T13:12:25.312Z,31.70
2019-05-20T13:14:53.873Z,27.57
2019-05-20T13:17:22.508Z,31.70
2019-05-20T13:19:51.044Z,30.93
2019-05-20T13:22:19.660Z,35.57
2019-05-20T13:24:48.257Z,36.53
2019-05-20T13:27:16.818Z,36.33
2019-05-20T13:29:45.379Z,31.57
2019-05-20T13:32:14.059Z,32.63
2019-05-20T13:34:42.701Z,34.07
2019-05-20T13:37:11.304Z,34.90
2019-05-20T13:39:40.531Z,30.97
2019-05-20T13:42:09.591Z,34.57
2019-05-20T13:44:38.172Z,25.37
2019-05-20T13:47:06.760Z,26.67
2019-05-20T13:49:35.489Z,26.73
2019-05-20T13:52:04.138Z,29.83
2019-05-20T13:54:32.721Z,29.60
2019-05-20T13:57:01.384Z,30.00
2019-05-20T13:59:29.934Z,30.57
2019-05-20T14:01:58.546Z,27.07
2019-05-20T14:04:27.195Z,24.03
2019-05-20T14:06:55.781Z,25.17
2019-05-20T14:09:24.364Z,27.07
2019-05-20T14:11:52.947Z,24.17
2019-05-20T14:14:21.503Z,21.60
2019-05-20T14:16:50.149Z,23.77
2019-05-20T14:19:22.413Z,24.20
2019-05-20T14:21:48.972Z,24.97
2019-05-20T14:24:17.541Z,23.70
2019-05-20T14:26:46.145Z,24.50
2019-05-20T14:29:14.893Z,25.77
2019-05-20T14:31:43.493Z,28.07
2019-05-20T14:34:12.055Z,30.93
2019-05-20T14:36:40.687Z,33.97
2019-05-20T14:39:09.243Z,32.13
2019-05-20T14:41:37.848Z,31.13
2019-05-20T14:44:06.478Z,29.80
2019-05-20T14:46:35.172Z,35.70
2019-05-20T14:49:03.796Z,36.97
2019-05-20T14:51:32.401Z,32.90
2019-05-20T14:54:01.063Z,33.10
2019-05-20T14:56:29.608Z,38.93
2019-05-20T14:58:58.193Z,34.50
2019-05-20T15:01:26.868Z,38.97
2019-05-20T15:03:55.467Z,36.30
2019-05-20T15:06:24.116Z,40.10
2019-05-20T15:08:52.700Z,36.93
2019-05-20T15:11:36.825Z,29.77
2019-05-20T15:13:51.598Z,33.37
2019-05-20T15:16:20.180Z,30.47
2019-05-20T15:18:48.740Z,34.17
2019-05-20T15:21:17.329Z,39.40
2019-05-20T15:23:45.900Z,35.10
2019-05-20T15:26:14.585Z,40.50
2019-05-20T15:28:43.173Z,34.77
2019-05-20T15:31:11.726Z,40.47
2019-05-20T15:33:40.305Z,57.00
2019-05-20T15:36:08.882Z,40.47
2019-05-20T15:38:37.482Z,50.97
2019-05-20T15:41:06.785Z,45.97
2019-05-20T15:43:35.369Z,55.67
2019-05-20T15:46:04.019Z,60.37
2019-05-20T15:48:32.597Z,36.33
2019-05-20T15:51:01.237Z,38.27
2019-05-20T15:53:29.908Z,38.07
2019-05-20T15:55:58.470Z,39.23
2019-05-20T15:58:27.048Z,40.40
2019-05-20T16:00:55.637Z,41.97
2019-05-20T16:03:24.236Z,38.47
2019-05-20T16:05:52.888Z,43.87
2019-05-20T16:08:21.476Z,40.63
2019-05-20T16:10:50.237Z,37.50
2019-05-20T16:13:18.894Z,41.07
2019-05-20T16:15:47.460Z,43.43
2019-05-20T16:18:16.048Z,52.20
2019-05-20T16:20:44.757Z,42.17
2019-05-20T16:23:13.464Z,41.93
2019-05-20T16:25:43.686Z,38.17
2019-05-20T16:28:12.371Z,24.87
2019-05-20T16:30:40.928Z,15.47
2019-05-20T16:33:09.650Z,19.17
2019-05-20T16:35:42.079Z,16.70
2019-05-20T16:38:19.684Z,25.27
2019-05-20T16:40:47.915Z,24.13
2019-05-20T16:43:24.394Z,28.33
2019-05-20T16:45:52.473Z,17.00
2019-05-20T16:48:21.134Z,18.10
2019-05-20T16:50:49.828Z,16.50
2019-05-20T16:53:18.459Z,18.43
2019-05-20T16:55:47.083Z,17.37
2019-05-20T16:58:15.772Z,17.50
2019-05-20T17:00:44.355Z,15.20
2019-05-20T17:03:12.970Z,16.40
2019-05-20T17:05:41.583Z,11.70
2019-05-20T17:08:10.207Z,14.23
2019-05-20T17:10:38.742Z,14.50
2019-05-20T17:13:07.352Z,17.30
2019-05-20T17:15:36.135Z,24.50
2019-05-20T17:18:04.711Z,29.63
2019-05-20T17:20:33.432Z,67.47
2019-05-20T17:23:02.055Z,31.70
2019-05-20T17:25:30.609Z,10.83
2019-05-20T17:27:59.270Z,7.63
2019-05-20T17:30:27.843Z,13.47
2019-05-20T17:32:56.500Z,11.00
2019-05-20T17:35:25.145Z,8.77
2019-05-20T17:37:55.258Z,11.13
2019-05-20T17:40:24.409Z,8.33
2019-05-20T17:42:53.065Z,9.57
2019-05-20T17:45:21.873Z,10.17
2019-05-20T17:47:50.559Z,13.93
2019-05-20T17:50:19.648Z,11.13
2019-05-20T17:52:48.442Z,14.60
2019-05-20T17:55:17.275Z,11.63
2019-05-20T17:57:45.921Z,8.90
2019-05-20T18:00:16.689Z,14.47
2019-05-20T18:02:45.311Z,14.27
2019-05-20T18:05:14.911Z,14.33
2019-05-20T18:07:43.844Z,13.37
2019-05-20T18:10:12.772Z,12.77
2019-05-20T18:12:41.370Z,12.57
2019-05-20T18:15:10.285Z,9.27
2019-05-20T18:17:39.058Z,9.73
2019-05-20T18:20:08.095Z,12.33
2019-05-20T18:22:36.670Z,11.53
2019-05-20T18:25:07.004Z,15.23
2019-05-20T18:27:35.701Z,9.70
2019-05-20T18:30:06.640Z,10.70
2019-05-20T18:32:38.317Z,10.23
2019-05-20T18:35:06.072Z,13.23
2019-05-20T18:37:34.597Z,8.43
2019-05-20T18:40:13.393Z,12.50
2019-05-20T18:42:33.991Z,13.63
2019-05-20T18:45:02.618Z,9.63
2019-05-20T18:47:31.251Z,13.07
2019-05-20T18:49:59.838Z,10.73
2019-05-20T18:52:28.421Z,11.47
2019-05-20T18:54:57.105Z,15.07
2019-05-20T18:57:25.691Z,10.20
2019-05-20T18:59:54.467Z,14.87
2019-05-20T19:02:23.067Z,17.93
2019-05-20T19:04:51.663Z,15.23
2019-05-20T19:07:20.222Z,16.33
2019-05-20T19:09:48.975Z,17.97
2019-05-20T19:12:17.637Z,13.67
2019-05-20T19:14:46.451Z,16.67
2019-05-20T19:17:15.058Z,14.43
2019-05-20T19:19:43.670Z,15.47
2019-05-20T19:22:12.357Z,14.53
2019-05-20T19:24:42.593Z,14.37
2019-05-20T19:27:11.301Z,12.60
2019-05-20T19:29:39.957Z,11.83
2019-05-20T19:32:09.811Z,11.73
2019-05-20T19:34:38.500Z,13.70
2019-05-20T19:37:07.102Z,11.17
2019-05-20T19:39:35.842Z,13.33
2019-05-20T19:42:04.447Z,14.87
2019-05-20T19:44:33.241Z,13.27
2019-05-20T19:47:01.912Z,15.63
2019-05-20T19:49:33.289Z,10.47
2019-05-20T19:52:02.198Z,10.70
2019-05-20T19:54:55.947Z,9.97
2019-05-20T19:57:24.537Z,8.97
2019-05-20T19:59:53.167Z,9.10
2019-05-20T20:02:21.745Z,15.77
2019-05-20T20:04:50.502Z,10.50
2019-05-20T20:07:19.255Z,12.90
2019-05-20T20:09:47.880Z,9.60
2019-05-20T20:12:16.590Z,12.13
2019-05-20T20:14:45.184Z,11.07
2019-05-20T20:17:13.774Z,13.60
2019-05-20T20:19:42.372Z,13.87
2019-05-20T20:25:01.805Z,13.10
2019-05-20T20:27:30.964Z,10.93
2019-05-20T20:29:59.745Z,9.90
2019-05-20T20:32:38.008Z,12.97
2019-05-20T20:34:59.206Z,10.23
2019-05-20T20:37:27.850Z,11.60
2019-05-20T20:39:56.800Z,12.13
2019-05-20T20:42:25.626Z,10.53
2019-05-20T20:44:54.408Z,11.23
2019-05-20T20:47:23.271Z,10.30
2019-05-20T20:49:52.140Z,9.83
2019-05-20T20:52:21.231Z,9.90
2019-05-20T20:54:50.054Z,8.90
2019-05-20T20:57:18.612Z,7.83
2019-05-20T20:59:50.132Z,9.23
2019-05-20T21:02:17.672Z,9.60
2019-05-20T21:04:46.301Z,7.17
2019-05-20T21:07:15.075Z,11.87
2019-05-20T21:10:21.364Z,6.93
2019-05-20T21:12:50.014Z,7.90
2019-05-20T21:15:39.564Z,7.57
2019-05-20T21:18:04.564Z,8.77
2019-05-20T21:20:34.189Z,7.23
2019-05-20T21:23:09.958Z,12.70
2019-05-20T21:25:46.727Z,11.83
2019-05-20T21:28:15.627Z,7.70
2019-05-20T21:30:44.401Z,8.73
2019-05-20T21:33:14.581Z,9.70
2019-05-20T21:35:45.366Z,9.90
2019-05-20T21:38:13.629Z,8.73
2019-05-20T21:40:42.813Z,8.00
2019-05-20T21:43:16.293Z,6.90
2019-05-20T21:45:45.070Z,10.53
2019-05-20T21:48:13.672Z,9.03
2019-05-20T21:50:42.514Z,8.33
2019-05-20T21:53:15.727Z,10.83
2019-05-20T21:55:44.311Z,9.53
2019-05-20T21:58:12.905Z,11.97
2019-05-20T22:00:45.643Z,7.77
2019-05-20T22:03:23.918Z,8.47
2019-05-20T22:05:44.609Z,8.03
2019-05-20T22:08:13.245Z,9.33
2019-05-20T22:10:41.866Z,9.93
2019-05-20T22:13:10.574Z,8.63
2019-05-20T22:15:39.272Z,12.50
2019-05-20T22:18:07.932Z,12.20
2019-05-20T22:20:36.748Z,11.77
2019-05-20T22:23:15.712Z,9.03
2019-05-20T22:25:47.511Z,13.90
2019-05-20T22:28:16.088Z,10.33
2019-05-20T22:30:44.880Z,13.13
2019-05-20T22:33:13.762Z,14.90
2019-05-20T22:35:42.385Z,13.27
2019-05-20T22:38:11.284Z,16.37
2019-05-20T22:40:39.856Z,15.60
2019-05-20T22:43:08.836Z,16.27
2019-05-20T22:45:37.557Z,20.00
2019-05-20T22:48:06.421Z,16.57
2019-05-20T22:50:35.157Z,22.07
2019-05-20T22:53:03.849Z,20.63
2019-05-20T22:55:32.870Z,19.47
2019-05-20T22:58:01.511Z,22.47
2019-05-20T23:00:30.102Z,21.27
2019-05-20T23:02:58.803Z,22.47
2019-05-20T23:05:27.339Z,25.17
2019-05-20T23:07:56.021Z,22.23
2019-05-20T23:10:24.576Z,25.73
2019-05-20T23:12:53.156Z,26.77
2019-05-20T23:15:21.715Z,25.17
2019-05-20T23:17:50.291Z,24.27
2019-05-20T23:20:18.854Z,22.73
2019-05-20T23:22:47.429Z,25.00
2019-05-20T23:25:15.995Z,23.73
2019-05-20T23:27:44.573Z,26.10
2019-05-20T23:30:14.080Z,24.47
2019-05-20T23:32:42.672Z,27.50
2019-05-20T23:35:11.407Z,24.97
2019-05-20T23:37:39.945Z,26.73
2019-05-20T23:40:08.656Z,27.10
2019-05-20T23:42:37.245Z,28.87
2019-05-20T23:45:09.664Z,26.63
2019-05-20T23:47:38.263Z,26.13
2019-05-20T23:50:06.980Z,28.50
2019-05-20T23:52:35.591Z,26.03
2019-05-20T23:55:06.653Z,30.90
2019-05-20T23:57:35.354Z,28.90
